To NAV CANADA Home Page Login to a new session Search on AWWS site Feedback and Comments Disclaimer Vers la page française équivalente Tips FAQ What's new on the site To the Forecasts and Observations / NOTAM section To "File a Flight Plan" website Publications and other links Update of the User's profile FIC Telephone Numbers My Weather Data Folder Route Weather Data Regional Weather Data Local Weather Data To the Forecasts and Observations / NOTAM section
Request Generated 03/29/2015 at 13:38:36 UTC . Weather information available at that time is displayed.

METAR/TAF

ISLAND LAKE/MB    

METAR CYIV 291300Z 33012G18KT 11SM -SN OVC007 00/M00 A2955 RMK SC8
SLP020=
METAR CYIV 291200Z 32012G18KT 12SM -SN OVC007 00/M01 A2952 RMK SC8
SLP010=
METAR CYIV 291100Z 33011KT 12SM -SN OVC007 M00/M01 A2950 RMK SC8
SLP001=

TAF CYIV 291238Z 2913/3001 32010KT 4SM -SN BR OVC007 TEMPO 2913/2916
P6SM NSW OVC010 PROB30 2913/2915 OVC003
FM291700 32012KT P6SM BKN012 TEMPO 2917/2921 FEW012 BKN025
FM292100 36008KT P6SM BKN025
RMK NXT FCST BY 291900Z=
Your time UTC time
Weather data provided by Environment Canada and NAV CANADA